Time;durP1;ratioP1;P1;durP2;ratioP2;P2;SDS_P1;SDS_P2;PMS_P1;PMS_P2;Temp;Humidity;BMP_temperature;BMP_pressure;BME280_temperature;BME280_humidity;BME280_pressure;Samples;Min_cycle;Max_cycle;Signal;HPM_P1;HPM_P2
2022/01/15 00:00:35;;;;;;;;;;;20.10;35.70;;;;;;5096848;28;19919;-63
2022/01/15 00:03:00;;;;;;;;;;;20.10;35.70;;;;;;5097065;28;19949;-64
2022/01/15 00:05:26;;;;;;;;;;;20.10;35.70;;;;;;5097220;28;19946;-63
2022/01/15 00:07:51;;;;;;;;;;;20.10;35.70;;;;;;5096935;28;20329;-63
2022/01/15 00:10:20;;;;;;;;;;;20.10;35.70;;;;;;5096902;28;19915;-63
2022/01/15 00:12:45;;;;;;;;;;;20.10;35.70;;;;;;5096937;28;19908;-64
2022/01/15 00:15:15;;;;;;;;;;;20.10;35.70;;;;;;5096705;28;19914;-64
2022/01/15 00:20:09;;;;;;;;;;;20.10;35.70;;;;;;5096592;28;19920;-65
2022/01/15 00:22:34;;;;;;;;;;;20.10;35.70;;;;;;5096828;28;19908;-63
2022/01/15 00:25:00;;;;;;;;;;;20.10;35.70;;;;;;5096575;28;19919;-63
2022/01/15 00:27:25;;;;;;;;;;;20.10;35.70;;;;;;5078354;28;19953;-63
2022/01/15 00:29:51;;;;;;;;;;;20.10;35.70;;;;;;5096588;28;19908;-64
2022/01/15 00:32:16;;;;;;;;;;;20.00;35.70;;;;;;5096464;28;19919;-64
2022/01/15 00:34:42;;;;;;;;;;;20.00;35.70;;;;;;5096395;28;19939;-63
2022/01/15 00:37:07;;;;;;;;;;;20.00;35.70;;;;;;5096361;28;19934;-63
2022/01/15 00:39:32;;;;;;;;;;;20.00;35.80;;;;;;5078001;28;19923;-63
2022/01/15 00:41:58;;;;;;;;;;;20.00;35.70;;;;;;5096183;28;19915;-63
2022/01/15 00:44:23;;;;;;;;;;;20.00;35.70;;;;;;5096173;28;20070;-64
2022/01/15 00:46:49;;;;;;;;;;;20.00;35.80;;;;;;5096191;28;19985;-64
2022/01/15 00:49:14;;;;;;;;;;;20.00;35.80;;;;;;5077904;28;20000;-64
2022/01/15 00:51:40;;;;;;;;;;;20.00;35.70;;;;;;5096084;28;19931;-64
2022/01/15 00:54:06;;;;;;;;;;;20.00;35.80;;;;;;5095995;28;19915;-63
2022/01/15 00:56:31;;;;;;;;;;;20.00;35.80;;;;;;5096013;28;19912;-64
2022/01/15 00:58:57;;;;;;;;;;;20.00;35.80;;;;;;5095701;28;19920;-63
2022/01/15 01:01:22;;;;;;;;;;;20.00;35.80;;;;;;5095791;28;19916;-64
2022/01/15 01:03:48;;;;;;;;;;;19.90;35.80;;;;;;5095865;28;20010;-63
2022/01/15 01:06:13;;;;;;;;;;;20.00;35.80;;;;;;5095685;28;19908;-63
2022/01/15 01:08:39;;;;;;;;;;;20.00;35.80;;;;;;5077523;28;19913;-63
2022/01/15 01:11:11;;;;;;;;;;;20.00;35.80;;;;;;5076642;28;19908;-63
2022/01/15 01:24:19;;;;;;;;;;;19.90;35.80;;;;;;5095767;28;19908;-64
2022/01/15 01:26:50;;;;;;;;;;;19.90;35.80;;;;;;5095608;28;19908;-63
2022/01/15 01:32:00;;;;;;;;;;;19.90;35.80;;;;;;5095643;28;19994;-64
2022/01/15 01:34:29;;;;;;;;;;;19.90;35.80;;;;;;5095251;28;19908;-64
2022/01/15 01:37:03;;;;;;;;;;;19.80;35.80;;;;;;5095171;28;20049;-64
2022/01/15 01:39:39;;;;;;;;;;;19.80;35.90;;;;;;5095320;28;20010;-63
2022/01/15 01:42:12;;;;;;;;;;;19.80;35.90;;;;;;5076962;28;19908;-63
2022/01/15 01:44:42;;;;;;;;;;;19.80;35.90;;;;;;5095058;28;19908;-64
2022/01/15 01:47:22;;;;;;;;;;;19.80;35.90;;;;;;5095033;28;20380;-64
2022/01/15 01:49:47;;;;;;;;;;;19.80;35.90;;;;;;5094842;28;19916;-63
2022/01/15 01:52:13;;;;;;;;;;;19.80;35.90;;;;;;5094850;28;19908;-63
2022/01/15 01:54:38;;;;;;;;;;;19.80;35.90;;;;;;5077009;28;19912;-63
2022/01/15 01:57:04;;;;;;;;;;;19.80;35.90;;;;;;5094705;28;19953;-64
2022/01/15 01:59:30;;;;;;;;;;;19.80;35.90;;;;;;5094450;28;20011;-64
2022/01/15 02:01:56;;;;;;;;;;;19.80;35.90;;;;;;5094935;28;19939;-64
2022/01/15 02:04:22;;;;;;;;;;;19.80;35.90;;;;;;5094671;28;19962;-63
2022/01/15 02:06:48;;;;;;;;;;;19.70;35.90;;;;;;5094728;28;19919;-63
2022/01/15 02:09:13;;;;;;;;;;;19.80;35.90;;;;;;5076496;28;20260;-63
2022/01/15 02:11:40;;;;;;;;;;;19.80;35.90;;;;;;5094497;28;19965;-64
2022/01/15 02:14:05;;;;;;;;;;;19.70;35.90;;;;;;5094578;28;19908;-63
2022/01/15 02:16:30;;;;;;;;;;;19.70;35.90;;;;;;5094473;28;20269;-64
2022/01/15 02:18:56;;;;;;;;;;;19.70;35.90;;;;;;5094350;28;19908;-64
2022/01/15 02:24:06;;;;;;;;;;;19.70;35.90;;;;;;5094652;28;19970;-64
2022/01/15 02:26:34;;;;;;;;;;;19.70;35.90;;;;;;5094360;28;19920;-64
2022/01/15 02:29:00;;;;;;;;;;;19.70;35.90;;;;;;5094242;28;19916;-64
2022/01/15 02:31:27;;;;;;;;;;;19.70;35.90;;;;;;5094415;28;19908;-63
2022/01/15 02:33:54;;;;;;;;;;;19.70;35.90;;;;;;5094124;28;19963;-63
2022/01/15 02:36:21;;;;;;;;;;;19.70;35.90;;;;;;5094089;28;20328;-63
2022/01/15 02:38:47;;;;;;;;;;;19.70;35.90;;;;;;5094078;28;19947;-64
2022/01/15 02:41:13;;;;;;;;;;;19.70;35.90;;;;;;5093969;28;19969;-64
2022/01/15 02:43:39;;;;;;;;;;;19.70;35.90;;;;;;5093944;28;19919;-63
2022/01/15 02:46:19;;;;;;;;;;;19.70;35.90;;;;;;5075694;28;19909;-63
2022/01/15 02:48:49;;;;;;;;;;;19.60;35.90;;;;;;5093876;28;20352;-63
2022/01/15 02:51:15;;;;;;;;;;;19.60;35.90;;;;;;5094164;28;20244;-64
2022/01/15 02:53:41;;;;;;;;;;;19.60;35.90;;;;;;5093890;28;19918;-64
2022/01/15 02:56:07;;;;;;;;;;;19.60;35.90;;;;;;5094122;28;19908;-64
2022/01/15 02:58:33;;;;;;;;;;;19.70;35.90;;;;;;5093732;28;20356;-63
2022/01/15 03:00:58;;;;;;;;;;;19.60;35.90;;;;;;5094020;28;20018;-64
2022/01/15 03:03:25;;;;;;;;;;;19.60;36.00;;;;;;5093331;28;21297;-63
2022/01/15 03:05:51;;;;;;;;;;;19.60;35.90;;;;;;5093861;28;19914;-64
2022/01/15 03:08:16;;;;;;;;;;;19.60;35.90;;;;;;5093878;28;19944;-65
2022/01/15 03:10:42;;;;;;;;;;;19.70;36.00;;;;;;5093636;28;19953;-64
2022/01/15 03:13:12;;;;;;;;;;;19.60;35.90;;;;;;5093493;28;19931;-63
2022/01/15 03:15:38;;;;;;;;;;;19.60;36.00;;;;;;5093732;28;19914;-63
2022/01/15 03:18:04;;;;;;;;;;;19.60;36.00;;;;;;5093474;28;20003;-63
2022/01/15 03:20:29;;;;;;;;;;;19.60;35.90;;;;;;5093476;28;19923;-64
2022/01/15 03:22:55;;;;;;;;;;;19.60;36.00;;;;;;5093467;28;19908;-64
2022/01/15 03:25:21;;;;;;;;;;;19.60;36.00;;;;;;5093412;28;19908;-64
2022/01/15 03:27:46;;;;;;;;;;;19.50;36.00;;;;;;5093455;28;19909;-64
2022/01/15 03:30:12;;;;;;;;;;;19.60;36.00;;;;;;5093419;28;20320;-63
2022/01/15 03:32:42;;;;;;;;;;;19.60;36.00;;;;;;5093948;28;19946;-63
2022/01/15 03:35:09;;;;;;;;;;;19.50;36.00;;;;;;5097876;28;19915;-64
2022/01/15 03:37:34;;;;;;;;;;;19.60;36.00;;;;;;5097461;28;19977;-64
2022/01/15 03:40:00;;;;;;;;;;;19.50;36.00;;;;;;5079305;28;20240;-63
2022/01/15 03:42:25;;;;;;;;;;;19.60;36.00;;;;;;5097461;28;19965;-63
2022/01/15 03:44:51;;;;;;;;;;;19.50;36.00;;;;;;5097590;28;19908;-63
2022/01/15 03:47:16;;;;;;;;;;;19.50;36.00;;;;;;5097342;28;19908;-63
2022/01/15 03:49:42;;;;;;;;;;;19.60;36.00;;;;;;5097565;28;19959;-63
2022/01/15 03:52:09;;;;;;;;;;;19.50;36.00;;;;;;5097235;28;20409;-63
2022/01/15 03:54:35;;;;;;;;;;;19.50;36.00;;;;;;5079157;28;19908;-63
2022/01/15 03:57:00;;;;;;;;;;;19.50;36.00;;;;;;5097398;28;19915;-63
2022/01/15 03:59:26;;;;;;;;;;;19.50;36.00;;;;;;5096920;28;20287;-63
2022/01/15 04:01:51;;;;;;;;;;;19.50;36.00;;;;;;5097342;28;19966;-63
2022/01/15 04:04:17;;;;;;;;;;;19.50;36.00;;;;;;5097034;28;19938;-63
2022/01/15 04:06:43;;;;;;;;;;;19.50;36.00;;;;;;5096806;28;20005;-63
2022/01/15 04:09:09;;;;;;;;;;;19.50;36.10;;;;;;5096849;28;19958;-63
2022/01/15 04:11:35;;;;;;;;;;;19.50;36.00;;;;;;5096794;28;19908;-63
2022/01/15 04:14:01;;;;;;;;;;;19.50;36.00;;;;;;5096843;28;20393;-64
2022/01/15 04:16:28;;;;;;;;;;;19.50;36.00;;;;;;5096787;28;19916;-63
2022/01/15 04:18:55;;;;;;;;;;;19.50;36.10;;;;;;5096737;28;20261;-64
2022/01/15 04:21:20;;;;;;;;;;;19.50;36.10;;;;;;5096562;28;19971;-64
2022/01/15 04:23:46;;;;;;;;;;;19.50;36.10;;;;;;5096624;28;19909;-63
2022/01/15 04:26:11;;;;;;;;;;;19.50;36.10;;;;;;5078475;28;19915;-63
2022/01/15 04:28:37;;;;;;;;;;;19.50;36.10;;;;;;5096723;28;19908;-63
2022/01/15 04:31:06;;;;;;;;;;;19.50;36.10;;;;;;5096681;28;20363;-64
2022/01/15 04:33:32;;;;;;;;;;;19.50;36.10;;;;;;5096733;28;19915;-63
2022/01/15 04:35:58;;;;;;;;;;;19.50;36.10;;;;;;5078257;28;20283;-63
2022/01/15 04:38:23;;;;;;;;;;;19.40;36.10;;;;;;5096362;28;19915;-63
2022/01/15 04:40:48;;;;;;;;;;;19.40;36.20;;;;;;5096198;28;19920;-63
2022/01/15 04:43:14;;;;;;;;;;;19.50;36.10;;;;;;5096389;28;19908;-63
2022/01/15 04:45:39;;;;;;;;;;;19.50;36.20;;;;;;5094957;28;20393;-63
2022/01/15 04:48:05;;;;;;;;;;;19.40;36.20;;;;;;5096170;28;20349;-63
2022/01/15 04:50:30;;;;;;;;;;;19.40;36.20;;;;;;5096153;28;19908;-64
2022/01/15 04:52:56;;;;;;;;;;;19.50;36.10;;;;;;5096035;28;20005;-63
2022/01/15 04:55:21;;;;;;;;;;;19.50;36.20;;;;;;5096300;28;19908;-63
2022/01/15 04:57:46;;;;;;;;;;;19.40;36.20;;;;;;5095967;28;20013;-63
2022/01/15 05:00:15;;;;;;;;;;;19.40;36.20;;;;;;5095788;28;19924;-64
2022/01/15 05:02:40;;;;;;;;;;;19.40;36.20;;;;;;5095899;28;19995;-63
2022/01/15 05:05:06;;;;;;;;;;;19.40;36.20;;;;;;5095658;28;19939;-63
2022/01/15 05:07:32;;;;;;;;;;;19.40;36.20;;;;;;5095665;28;19908;-63
2022/01/15 05:09:57;;;;;;;;;;;19.40;36.20;;;;;;5095834;28;20419;-63
2022/01/15 05:12:30;;;;;;;;;;;19.40;36.20;;;;;;5095704;28;20275;-63
2022/01/15 05:14:56;;;;;;;;;;;19.40;36.20;;;;;;5095705;28;19908;-63
2022/01/15 05:17:22;;;;;;;;;;;19.40;36.20;;;;;;5095564;28;19931;-63
2022/01/15 05:19:47;;;;;;;;;;;19.40;36.20;;;;;;5095463;28;19920;-63
2022/01/15 05:22:13;;;;;;;;;;;19.40;36.10;;;;;;5095468;28;19915;-63
2022/01/15 05:24:38;;;;;;;;;;;19.50;36.10;;;;;;5095575;28;20356;-64
2022/01/15 05:27:04;;;;;;;;;;;19.50;36.10;;;;;;5095457;28;19908;-63
2022/01/15 05:29:29;;;;;;;;;;;19.50;36.00;;;;;;5095597;28;19912;-65
2022/01/15 05:31:55;;;;;;;;;;;19.50;36.00;;;;;;5095394;28;20306;-63
2022/01/15 05:34:20;;;;;;;;;;;19.60;36.00;;;;;;5095388;28;19908;-63
2022/01/15 05:36:46;;;;;;;;;;;19.60;35.90;;;;;;5095213;28;20013;-63
2022/01/15 05:39:12;;;;;;;;;;;19.60;35.90;;;;;;5095248;28;19961;-63
2022/01/15 05:41:37;;;;;;;;;;;19.60;35.90;;;;;;5095071;28;19967;-63
2022/01/15 05:44:03;;;;;;;;;;;19.70;35.90;;;;;;5095131;28;19908;-63
2022/01/15 05:46:29;;;;;;;;;;;19.70;35.90;;;;;;5095016;28;19919;-64
2022/01/15 05:48:55;;;;;;;;;;;19.70;35.90;;;;;;5095044;28;19908;-63
2022/01/15 05:51:20;;;;;;;;;;;19.70;35.80;;;;;;5094928;28;19908;-63
2022/01/15 05:53:45;;;;;;;;;;;19.80;35.80;;;;;;5094905;28;19908;-63
2022/01/15 05:56:11;;;;;;;;;;;19.70;35.80;;;;;;5094572;28;19911;-63
2022/01/15 05:58:36;;;;;;;;;;;19.80;35.80;;;;;;5094817;28;19915;-63
2022/01/15 06:01:02;;;;;;;;;;;19.80;35.80;;;;;;5094705;28;20398;-63
2022/01/15 06:03:27;;;;;;;;;;;19.80;35.90;;;;;;5094716;28;19915;-63
2022/01/15 06:05:53;;;;;;;;;;;19.80;35.80;;;;;;5094659;28;20390;-63
2022/01/15 06:08:18;;;;;;;;;;;19.80;35.70;;;;;;5076523;28;20425;-63
2022/01/15 06:10:44;;;;;;;;;;;19.80;35.80;;;;;;5094810;28;20433;-63
2022/01/15 06:13:09;;;;;;;;;;;19.80;35.80;;;;;;5076477;28;19919;-63
2022/01/15 06:15:35;;;;;;;;;;;19.90;35.80;;;;;;5094554;28;20299;-63
2022/01/15 06:18:00;;;;;;;;;;;19.90;35.80;;;;;;5094529;28;19987;-63
2022/01/15 06:20:25;;;;;;;;;;;19.90;35.80;;;;;;5094236;28;20394;-63
2022/01/15 06:22:51;;;;;;;;;;;19.90;35.80;;;;;;5094396;28;19908;-64
2022/01/15 06:25:16;;;;;;;;;;;19.90;35.70;;;;;;5094335;28;19909;-63
2022/01/15 06:27:42;;;;;;;;;;;19.90;35.80;;;;;;5094574;28;19908;-63
2022/01/15 06:30:07;;;;;;;;;;;19.90;35.70;;;;;;5076103;28;19908;-63
2022/01/15 06:32:36;;;;;;;;;;;20.00;35.70;;;;;;5094235;28;19955;-63
2022/01/15 06:35:06;;;;;;;;;;;19.90;35.70;;;;;;5094360;28;20014;-63
2022/01/15 06:37:31;;;;;;;;;;;20.00;35.80;;;;;;5094356;28;19914;-63
2022/01/15 06:39:56;;;;;;;;;;;20.00;35.70;;;;;;5094119;28;19920;-63
2022/01/15 06:42:22;;;;;;;;;;;20.00;35.70;;;;;;5094099;28;19908;-63
2022/01/15 06:44:47;;;;;;;;;;;20.00;35.70;;;;;;5094244;28;19919;-63
2022/01/15 06:47:13;;;;;;;;;;;20.00;35.80;;;;;;5093975;28;20486;-63
2022/01/15 06:49:38;;;;;;;;;;;20.00;35.70;;;;;;5093864;28;19908;-63
2022/01/15 06:52:04;;;;;;;;;;;20.00;35.70;;;;;;5093849;28;19919;-63
2022/01/15 06:54:29;;;;;;;;;;;20.00;35.70;;;;;;5093860;28;19912;-63
2022/01/15 06:56:55;;;;;;;;;;;20.00;35.60;;;;;;5093778;28;19911;-64
2022/01/15 06:59:20;;;;;;;;;;;20.00;35.70;;;;;;5093624;28;20386;-64
2022/01/15 07:01:46;;;;;;;;;;;20.00;35.70;;;;;;5093599;28;19978;-64
2022/01/15 07:04:11;;;;;;;;;;;20.10;35.70;;;;;;5093670;28;19908;-64
2022/01/15 07:06:36;;;;;;;;;;;20.10;35.70;;;;;;5093641;28;19961;-63
2022/01/15 07:09:02;;;;;;;;;;;20.10;35.70;;;;;;5074860;28;20363;-63
2022/01/15 07:11:27;;;;;;;;;;;20.10;35.70;;;;;;5075747;28;19912;-63
2022/01/15 07:13:53;;;;;;;;;;;20.10;35.70;;;;;;5093635;28;19991;-63
2022/01/15 07:16:18;;;;;;;;;;;20.10;35.60;;;;;;5093493;28;19994;-63
2022/01/15 07:18:44;;;;;;;;;;;20.10;35.60;;;;;;5093521;28;19912;-63
2022/01/15 07:21:10;;;;;;;;;;;20.10;35.60;;;;;;5093409;28;19951;-63
2022/01/15 07:23:35;;;;;;;;;;;20.10;35.60;;;;;;5093557;28;19908;-64
2022/01/15 07:26:01;;;;;;;;;;;20.20;35.70;;;;;;5093548;28;20064;-64
2022/01/15 07:28:29;;;;;;;;;;;20.20;35.60;;;;;;5093473;28;19950;-64
2022/01/15 07:30:55;;;;;;;;;;;20.20;35.60;;;;;;5093446;28;19908;-64
2022/01/15 07:33:20;;;;;;;;;;;20.20;35.60;;;;;;5093400;28;19915;-63
2022/01/15 07:35:46;;;;;;;;;;;20.20;35.60;;;;;;5093232;28;20064;-63
2022/01/15 07:38:12;;;;;;;;;;;20.20;35.60;;;;;;5093403;28;19962;-63
2022/01/15 07:40:37;;;;;;;;;;;20.20;35.60;;;;;;5093220;28;20363;-64
2022/01/15 07:43:03;;;;;;;;;;;20.20;35.60;;;;;;5093473;28;19934;-63
2022/01/15 07:45:28;;;;;;;;;;;20.20;35.50;;;;;;5093640;28;19954;-63
2022/01/15 07:47:54;;;;;;;;;;;20.20;35.60;;;;;;5093368;28;20261;-64
2022/01/15 07:50:23;;;;;;;;;;;20.30;35.60;;;;;;5093505;28;19974;-63
2022/01/15 07:52:56;;;;;;;;;;;20.20;35.60;;;;;;5093271;28;19915;-63
2022/01/15 07:55:22;;;;;;;;;;;20.20;35.60;;;;;;5093108;28;20009;-64
2022/01/15 07:57:47;;;;;;;;;;;20.30;35.60;;;;;;5093180;28;19946;-63
2022/01/15 08:00:13;;;;;;;;;;;20.30;35.50;;;;;;5092898;28;19927;-64
2022/01/15 08:02:39;;;;;;;;;;;20.30;35.60;;;;;;5093014;28;19909;-63
2022/01/15 08:05:05;;;;;;;;;;;20.30;35.60;;;;;;5093103;28;20453;-63
2022/01/15 08:07:30;;;;;;;;;;;20.30;35.60;;;;;;5093283;28;19908;-64
2022/01/15 08:09:56;;;;;;;;;;;20.30;35.50;;;;;;5092993;28;19908;-63
2022/01/15 08:12:22;;;;;;;;;;;20.30;35.50;;;;;;5093016;28;19908;-64
2022/01/15 08:14:49;;;;;;;;;;;20.30;35.50;;;;;;5092950;28;19912;-64
2022/01/15 08:17:15;;;;;;;;;;;20.30;35.50;;;;;;5093136;28;19924;-63
2022/01/15 08:19:40;;;;;;;;;;;20.30;35.50;;;;;;5094829;28;19916;-64
2022/01/15 08:22:06;;;;;;;;;;;20.30;35.50;;;;;;5096748;28;19912;-64
2022/01/15 08:24:31;;;;;;;;;;;20.30;35.50;;;;;;5096527;28;19915;-63
2022/01/15 08:26:56;;;;;;;;;;;20.40;35.50;;;;;;5096649;28;19915;-63
2022/01/15 08:29:22;;;;;;;;;;;20.40;35.50;;;;;;5096557;28;19908;-63
2022/01/15 08:31:47;;;;;;;;;;;20.30;35.60;;;;;;5096365;28;19958;-63
2022/01/15 08:34:13;;;;;;;;;;;20.40;35.60;;;;;;5096671;28;19915;-63
2022/01/15 08:36:38;;;;;;;;;;;20.40;35.50;;;;;;5096385;28;19991;-63
2022/01/15 08:39:04;;;;;;;;;;;20.40;35.50;;;;;;5096351;28;19908;-63
2022/01/15 08:41:30;;;;;;;;;;;20.40;35.50;;;;;;5096331;28;19920;-64
2022/01/15 08:43:55;;;;;;;;;;;20.40;35.50;;;;;;5096622;28;19909;-63
2022/01/15 08:46:21;;;;;;;;;;;20.40;35.50;;;;;;5096271;28;19908;-63
2022/01/15 08:48:47;;;;;;;;;;;20.40;35.50;;;;;;5096254;28;20371;-64
2022/01/15 08:51:12;;;;;;;;;;;20.40;35.50;;;;;;5096137;28;20252;-63
2022/01/15 08:53:38;;;;;;;;;;;20.40;35.40;;;;;;5096084;28;19994;-64
2022/01/15 08:56:04;;;;;;;;;;;20.40;35.50;;;;;;5096056;28;19908;-64
2022/01/15 08:58:29;;;;;;;;;;;20.40;35.50;;;;;;5095994;28;19975;-64
2022/01/15 09:00:55;;;;;;;;;;;20.40;35.40;;;;;;5095643;28;19920;-63
2022/01/15 09:03:24;;;;;;;;;;;20.40;35.40;;;;;;5077954;28;19908;-64
2022/01/15 09:05:50;;;;;;;;;;;20.40;35.40;;;;;;5095775;28;20387;-63
2022/01/15 09:08:17;;;;;;;;;;;20.40;35.40;;;;;;5095891;28;19965;-63
2022/01/15 09:10:42;;;;;;;;;;;20.40;35.40;;;;;;5096029;28;20278;-63
2022/01/15 09:13:11;;;;;;;;;;;20.50;35.40;;;;;;5095781;28;19949;-63
2022/01/15 09:15:36;;;;;;;;;;;20.50;35.40;;;;;;5095683;28;20283;-63
2022/01/15 09:18:02;;;;;;;;;;;20.50;35.40;;;;;;5095640;28;19908;-63
2022/01/15 09:20:27;;;;;;;;;;;20.50;35.30;;;;;;5077427;28;19920;-63
2022/01/15 09:22:53;;;;;;;;;;;20.50;35.40;;;;;;5095531;28;19916;-64
2022/01/15 09:25:19;;;;;;;;;;;20.50;35.40;;;;;;5095622;28;19908;-63
2022/01/15 09:30:28;;;;;;;;;;;20.50;35.30;;;;;;5094627;28;19931;-65
2022/01/15 09:32:55;;;;;;;;;;;20.50;35.40;;;;;;5077467;28;19908;-63
2022/01/15 09:35:21;;;;;;;;;;;20.50;35.40;;;;;;5095188;28;20391;-63
2022/01/15 09:37:49;;;;;;;;;;;20.50;35.30;;;;;;5095329;28;19911;-64
2022/01/15 09:40:15;;;;;;;;;;;20.50;35.40;;;;;;5095426;28;20318;-65
2022/01/15 09:42:41;;;;;;;;;;;20.50;35.40;;;;;;5095100;28;19965;-63
2022/01/15 09:45:07;;;;;;;;;;;20.50;35.30;;;;;;5095084;28;20063;-63
2022/01/15 09:47:33;;;;;;;;;;;20.50;35.30;;;;;;5094936;28;20398;-63
2022/01/15 09:49:58;;;;;;;;;;;20.50;35.40;;;;;;5076860;28;19908;-63
2022/01/15 09:52:24;;;;;;;;;;;20.50;35.30;;;;;;5094913;28;19957;-63
2022/01/15 09:54:53;;;;;;;;;;;20.50;35.30;;;;;;5094801;28;19935;-64
2022/01/15 09:57:19;;;;;;;;;;;20.50;35.30;;;;;;5094638;28;19915;-63
2022/01/15 09:59:44;;;;;;;;;;;20.50;35.30;;;;;;5094663;28;19920;-65
2022/01/15 10:02:10;;;;;;;;;;;20.60;35.30;;;;;;5094782;28;19912;-63
2022/01/15 10:04:35;;;;;;;;;;;20.60;35.30;;;;;;5094743;28;19908;-63
2022/01/15 10:07:22;;;;;;;;;;;20.50;35.30;;;;;;5094837;28;19908;-63
2022/01/15 10:09:48;;;;;;;;;;;20.60;35.30;;;;;;5094580;28;19908;-63
2022/01/15 10:12:23;;;;;;;;;;;20.50;35.30;;;;;;5094404;28;19947;-64
2022/01/15 10:14:49;;;;;;;;;;;20.60;35.30;;;;;;5094367;28;19915;-64
2022/01/15 10:17:22;;;;;;;;;;;20.60;35.30;;;;;;5094424;28;19908;-63
2022/01/15 10:19:48;;;;;;;;;;;20.50;35.30;;;;;;5094368;28;19908;-64
2022/01/15 10:22:20;;;;;;;;;;;20.60;35.20;;;;;;5094191;28;19912;-64
2022/01/15 10:24:55;;;;;;;;;;;20.50;35.30;;;;;;5094229;28;19915;-63
2022/01/15 10:27:34;;;;;;;;;;;20.60;35.30;;;;;;5094301;28;19909;-63
2022/01/15 10:30:10;;;;;;;;;;;20.60;35.30;;;;;;5094135;28;19912;-65
2022/01/15 10:32:40;;;;;;;;;;;20.60;35.30;;;;;;5093920;28;19908;-63
2022/01/15 10:35:10;;;;;;;;;;;20.60;35.30;;;;;;5094128;28;20371;-64
2022/01/15 10:37:46;;;;;;;;;;;20.60;35.30;;;;;;5093936;28;20291;-64
2022/01/15 10:40:12;;;;;;;;;;;20.60;35.20;;;;;;5094523;28;19919;-64
2022/01/15 10:42:38;;;;;;;;;;;20.60;35.20;;;;;;5093241;28;19912;-64
2022/01/15 10:45:08;;;;;;;;;;;20.60;35.20;;;;;;5093976;28;19908;-63
2022/01/15 10:47:38;;;;;;;;;;;20.60;35.20;;;;;;5075710;28;20268;-64
2022/01/15 10:50:04;;;;;;;;;;;20.60;35.20;;;;;;5094288;28;19950;-63
2022/01/15 10:52:30;;;;;;;;;;;20.60;35.20;;;;;;5075773;28;19912;-64
2022/01/15 10:55:00;;;;;;;;;;;20.60;35.20;;;;;;5093570;28;19908;-64
2022/01/15 10:57:28;;;;;;;;;;;20.60;35.10;;;;;;5093640;28;20276;-64
2022/01/15 10:59:58;;;;;;;;;;;20.60;35.10;;;;;;5093600;28;19924;-63
2022/01/15 11:02:24;;;;;;;;;;;20.60;35.20;;;;;;5093719;28;20400;-63
2022/01/15 11:04:49;;;;;;;;;;;20.60;35.20;;;;;;5093788;28;19912;-64
2022/01/15 11:07:15;;;;;;;;;;;20.60;35.20;;;;;;5093533;28;20367;-63
2022/01/15 11:09:44;;;;;;;;;;;20.60;35.10;;;;;;5093584;28;19952;-63
2022/01/15 11:12:11;;;;;;;;;;;20.60;35.10;;;;;;5075453;28;19919;-63
2022/01/15 11:14:37;;;;;;;;;;;20.70;35.10;;;;;;5093554;28;19912;-64
2022/01/15 11:17:03;;;;;;;;;;;20.70;35.10;;;;;;5093444;28;19931;-63
2022/01/15 11:19:32;;;;;;;;;;;20.60;35.10;;;;;;5093423;28;19934;-63
2022/01/15 11:21:58;;;;;;;;;;;20.60;35.20;;;;;;5093436;28;19923;-63
2022/01/15 11:24:23;;;;;;;;;;;20.70;35.10;;;;;;5093486;28;19908;-64
2022/01/15 11:26:55;;;;;;;;;;;20.60;35.10;;;;;;5093291;28;20283;-63
2022/01/15 11:29:21;;;;;;;;;;;20.70;35.10;;;;;;5093565;28;20314;-64
2022/01/15 11:31:46;;;;;;;;;;;20.70;35.10;;;;;;5093181;28;19961;-63
2022/01/15 11:34:14;;;;;;;;;;;20.70;35.10;;;;;;5093306;28;19908;-63
2022/01/15 11:36:40;;;;;;;;;;;20.70;35.10;;;;;;5093075;28;20363;-64
2022/01/15 11:39:07;;;;;;;;;;;20.70;35.10;;;;;;5093235;28;20287;-63
2022/01/15 11:41:32;;;;;;;;;;;20.70;35.10;;;;;;5093148;28;19971;-64
2022/01/15 11:44:02;;;;;;;;;;;20.70;35.10;;;;;;5093377;28;19915;-64
2022/01/15 11:46:29;;;;;;;;;;;20.70;35.10;;;;;;5093112;28;19909;-64
2022/01/15 11:49:13;;;;;;;;;;;20.70;35.10;;;;;;5093193;28;19908;-63
2022/01/15 11:51:38;;;;;;;;;;;20.70;35.00;;;;;;5092909;28;19908;-63
2022/01/15 11:54:10;;;;;;;;;;;20.70;35.10;;;;;;5094006;28;20271;-64
2022/01/15 11:56:36;;;;;;;;;;;20.70;35.10;;;;;;5097146;28;19908;-63
2022/01/15 11:59:21;;;;;;;;;;;20.70;35.10;;;;;;5096713;28;19926;-63
2022/01/15 12:01:46;;;;;;;;;;;20.70;35.10;;;;;;5096996;28;19932;-63
2022/01/15 12:04:30;;;;;;;;;;;20.70;35.10;;;;;;5096904;28;19931;-63
2022/01/15 12:07:05;;;;;;;;;;;20.70;35.00;;;;;;5096938;28;19931;-63
2022/01/15 12:09:34;;;;;;;;;;;20.80;35.10;;;;;;5096494;28;19908;-63
2022/01/15 12:12:01;;;;;;;;;;;20.80;35.10;;;;;;5096584;28;19965;-64
2022/01/15 12:14:45;;;;;;;;;;;20.80;35.00;;;;;;5096837;28;19908;-64
2022/01/15 12:17:29;;;;;;;;;;;20.80;35.00;;;;;;5096431;28;19912;-64
2022/01/15 12:19:55;;;;;;;;;;;20.80;35.10;;;;;;5096498;28;20355;-64
2022/01/15 12:22:40;;;;;;;;;;;20.80;35.10;;;;;;5096690;28;19918;-64
2022/01/15 12:25:06;;;;;;;;;;;20.80;35.10;;;;;;5096417;28;20014;-63
2022/01/15 12:27:32;;;;;;;;;;;20.80;35.00;;;;;;5078289;28;19947;-63
2022/01/15 12:30:06;;;;;;;;;;;20.80;35.00;;;;;;5078234;28;19908;-63
2022/01/15 12:32:32;;;;;;;;;;;20.80;35.00;;;;;;5096719;28;19991;-63
2022/01/15 12:34:59;;;;;;;;;;;20.80;35.00;;;;;;5096485;28;20321;-64
2022/01/15 12:37:25;;;;;;;;;;;20.80;35.00;;;;;;5096366;28;19912;-64
2022/01/15 12:39:50;;;;;;;;;;;20.80;35.10;;;;;;5096167;28;19912;-63
2022/01/15 12:42:17;;;;;;;;;;;20.80;35.00;;;;;;5096295;28;19923;-63
2022/01/15 12:44:43;;;;;;;;;;;20.80;35.00;;;;;;5096268;28;20017;-63
2022/01/15 12:47:09;;;;;;;;;;;20.80;35.00;;;;;;5078090;28;19908;-64
2022/01/15 12:49:42;;;;;;;;;;;20.80;35.00;;;;;;5096201;28;19930;-63
2022/01/15 12:52:12;;;;;;;;;;;20.80;35.00;;;;;;5096115;28;20363;-63
2022/01/15 12:54:37;;;;;;;;;;;20.80;35.00;;;;;;5096048;28;19954;-64
2022/01/15 12:57:03;;;;;;;;;;;20.80;35.00;;;;;;5096101;28;19912;-64
2022/01/15 12:59:28;;;;;;;;;;;20.90;35.00;;;;;;5095801;28;19920;-63
2022/01/15 13:01:54;;;;;;;;;;;20.90;35.00;;;;;;5077694;28;20398;-64
2022/01/15 13:04:20;;;;;;;;;;;20.90;35.00;;;;;;5077844;28;19912;-64
2022/01/15 13:06:49;;;;;;;;;;;20.80;35.00;;;;;;5094630;28;19908;-63
2022/01/15 13:09:16;;;;;;;;;;;20.80;35.00;;;;;;5096105;28;19994;-64
2022/01/15 13:11:48;;;;;;;;;;;20.90;35.00;;;;;;5095872;28;19915;-63
2022/01/15 13:14:14;;;;;;;;;;;20.80;35.00;;;;;;5095695;28;20007;-64
2022/01/15 13:16:39;;;;;;;;;;;20.90;35.00;;;;;;5095723;28;20402;-64
2022/01/15 13:19:06;;;;;;;;;;;20.90;35.00;;;;;;5095547;28;19915;-64
2022/01/15 13:21:36;;;;;;;;;;;20.90;35.00;;;;;;5095380;28;19920;-63
2022/01/15 13:24:03;;;;;;;;;;;20.90;35.00;;;;;;5095649;28;19908;-63
2022/01/15 13:26:33;;;;;;;;;;;20.90;35.00;;;;;;5095566;28;19908;-64
2022/01/15 13:29:02;;;;;;;;;;;20.90;35.00;;;;;;5095696;28;19954;-63
2022/01/15 13:31:32;;;;;;;;;;;20.90;35.00;;;;;;5095143;28;19995;-64
2022/01/15 13:34:08;;;;;;;;;;;20.90;35.00;;;;;;5095340;28;20007;-63
2022/01/15 13:36:33;;;;;;;;;;;20.90;35.00;;;;;;5095406;28;19987;-63
2022/01/15 13:38:59;;;;;;;;;;;20.90;34.90;;;;;;5095141;28;20425;-64
2022/01/15 13:41:26;;;;;;;;;;;20.90;35.00;;;;;;5095062;28;20008;-64
2022/01/15 13:43:55;;;;;;;;;;;20.90;35.00;;;;;;5095112;28;19908;-64
2022/01/15 13:46:27;;;;;;;;;;;20.90;35.00;;;;;;5095049;28;19915;-63
2022/01/15 13:48:58;;;;;;;;;;;20.90;34.90;;;;;;5095196;28;19968;-63
2022/01/15 13:54:12;;;;;;;;;;;20.90;35.00;;;;;;5095006;28;20018;-64
2022/01/15 13:56:42;;;;;;;;;;;20.90;34.90;;;;;;5076705;28;19908;-63
2022/01/15 13:59:09;;;;;;;;;;;20.80;35.00;;;;;;5094627;28;19926;-64
2022/01/15 14:01:38;;;;;;;;;;;20.90;35.00;;;;;;5094647;28;19916;-64
2022/01/15 14:04:20;;;;;;;;;;;20.90;35.00;;;;;;5095008;28;19908;-63
2022/01/15 14:06:45;;;;;;;;;;;20.90;34.90;;;;;;5094626;28;19909;-64
2022/01/15 14:09:15;;;;;;;;;;;20.90;34.90;;;;;;5094473;28;19914;-64
2022/01/15 14:11:59;;;;;;;;;;;20.90;34.90;;;;;;5094837;28;19908;-63
2022/01/15 14:14:24;;;;;;;;;;;20.90;34.90;;;;;;5094704;28;19947;-64
2022/01/15 14:16:51;;;;;;;;;;;20.90;34.90;;;;;;5094224;28;19963;-64
2022/01/15 14:22:14;;;;;;;;;;;20.90;34.90;;;;;;5094552;28;19971;-64
2022/01/15 14:24:39;;;;;;;;;;;20.90;34.90;;;;;;5094547;28;19934;-63
2022/01/15 14:27:05;;;;;;;;;;;20.90;35.00;;;;;;5094397;28;19909;-64
2022/01/15 14:29:30;;;;;;;;;;;20.80;34.90;;;;;;5094232;28;19915;-64
2022/01/15 14:31:57;;;;;;;;;;;20.90;34.90;;;;;;5094231;28;19908;-64
2022/01/15 14:34:23;;;;;;;;;;;20.90;34.90;;;;;;5094057;28;19935;-63
2022/01/15 14:36:49;;;;;;;;;;;20.90;34.90;;;;;;5094386;28;19943;-64
2022/01/15 14:39:16;;;;;;;;;;;20.90;34.90;;;;;;5094104;28;19974;-65
2022/01/15 14:41:42;;;;;;;;;;;20.90;34.90;;;;;;5094003;28;19967;-64